createdAt,value
2022-12-17T00:00:01.004Z,6.15
2022-12-17T00:02:46.652Z,6.85
2022-12-17T00:05:32.189Z,6.60
2022-12-17T00:08:18.971Z,6.38
2022-12-17T00:11:04.809Z,7.68
2022-12-17T00:13:50.393Z,7.22
2022-12-17T00:16:35.943Z,6.15
2022-12-17T00:19:21.889Z,6.65
2022-12-17T00:22:07.200Z,9.30
2022-12-17T00:24:53.138Z,9.30
2022-12-17T00:27:42.028Z,8.52
2022-12-17T00:30:31.814Z,8.85
2022-12-17T00:33:17.240Z,7.28
2022-12-17T00:36:02.791Z,9.10
2022-12-17T00:38:48.394Z,10.02
2022-12-17T00:41:34.021Z,9.35
2022-12-17T00:44:19.889Z,10.40
2022-12-17T00:47:05.385Z,9.43
2022-12-17T00:49:51.221Z,10.63
2022-12-17T00:52:37.502Z,9.30
2022-12-17T00:55:24.595Z,11.55
2022-12-17T00:58:14.357Z,11.73
2022-12-17T01:00:59.891Z,9.32
2022-12-17T01:03:47.087Z,12.40
2022-12-17T01:06:32.795Z,13.85
2022-12-17T01:09:18.295Z,13.15
2022-12-17T01:12:06.464Z,11.00
2022-12-17T01:14:52.083Z,12.07
2022-12-17T01:17:37.955Z,12.57
2022-12-17T01:20:23.888Z,14.30
2022-12-17T01:23:29.130Z,12.25
2022-12-17T01:26:16.191Z,12.70
2022-12-17T01:29:01.873Z,12.07
2022-12-17T01:31:47.537Z,12.70
2022-12-17T01:34:35.903Z,14.13
2022-12-17T01:37:22.799Z,14.73
2022-12-17T01:40:08.342Z,14.80
2022-12-17T01:43:03.425Z,15.18
2022-12-17T01:45:58.284Z,12.90
2022-12-17T01:49:00.210Z,15.98
2022-12-17T01:51:48.015Z,18.27
2022-12-17T01:54:34.040Z,12.30
2022-12-17T01:57:21.005Z,15.48
2022-12-17T02:00:27.533Z,17.95
2022-12-17T02:03:15.880Z,14.25
2022-12-17T02:06:29.432Z,15.30
2022-12-17T02:09:41.794Z,12.55
2022-12-17T02:12:40.501Z,13.27
2022-12-17T02:15:34.864Z,13.75
2022-12-17T02:18:26.260Z,13.63
2022-12-17T02:21:14.334Z,14.40
2022-12-17T02:24:25.173Z,14.32
2022-12-17T02:27:14.355Z,15.65
2022-12-17T02:30:04.730Z,11.40
2022-12-17T02:32:54.047Z,12.73
2022-12-17T02:35:49.611Z,14.05
2022-12-17T02:38:46.918Z,14.70
2022-12-17T02:41:38.219Z,13.40
2022-12-17T02:44:28.351Z,16.30
2022-12-17T02:47:16.700Z,15.23
2022-12-17T02:50:03.632Z,15.70
2022-12-17T02:52:57.827Z,17.23
2022-12-17T02:55:45.939Z,14.65
2022-12-17T02:58:32.317Z,16.10
2022-12-17T03:01:19.607Z,17.20
2022-12-17T03:04:05.623Z,15.32
2022-12-17T03:06:51.508Z,16.40
2022-12-17T03:09:37.434Z,14.45
2022-12-17T03:12:23.218Z,15.95
2022-12-17T03:15:08.661Z,14.45
2022-12-17T03:17:54.810Z,12.25
2022-12-17T03:20:40.335Z,16.90
2022-12-17T03:23:28.767Z,18.75
2022-12-17T03:26:21.333Z,18.27
2022-12-17T03:29:07.734Z,13.73
2022-12-17T03:31:53.661Z,15.77
2022-12-17T03:34:39.466Z,13.80
2022-12-17T03:37:24.983Z,16.30
2022-12-17T03:40:10.496Z,13.55
2022-12-17T03:42:55.875Z,13.20
2022-12-17T03:45:41.213Z,13.80
2022-12-17T03:48:29.670Z,15.52
2022-12-17T03:51:15.694Z,12.57
2022-12-17T03:54:02.107Z,13.82
2022-12-17T03:56:48.115Z,14.48
2022-12-17T03:59:34.486Z,13.98
2022-12-17T04:02:20.415Z,15.15
2022-12-17T04:05:06.388Z,14.65
2022-12-17T04:07:52.051Z,15.00
2022-12-17T04:10:37.969Z,15.95
2022-12-17T04:13:24.366Z,13.90
2022-12-17T04:16:10.332Z,15.23
2022-12-17T04:18:57.243Z,14.63
2022-12-17T04:21:42.835Z,15.60
2022-12-17T04:24:28.542Z,13.80
2022-12-17T04:27:14.115Z,15.10
2022-12-17T04:29:59.436Z,16.65
2022-12-17T04:32:45.168Z,14.10
2022-12-17T04:35:30.863Z,13.95
2022-12-17T04:38:16.304Z,15.45
2022-12-17T04:41:01.758Z,17.35
2022-12-17T04:43:46.995Z,15.60
2022-12-17T04:46:32.902Z,17.25
2022-12-17T04:49:18.479Z,19.48
2022-12-17T04:52:04.307Z,17.15
2022-12-17T04:54:49.960Z,20.02
2022-12-17T04:57:35.464Z,16.13
2022-12-17T05:00:20.907Z,16.13
2022-12-17T05:03:06.860Z,17.17
2022-12-17T05:06:03.122Z,16.75
2022-12-17T05:08:59.458Z,14.13
2022-12-17T05:11:45.246Z,18.40
2022-12-17T05:14:30.984Z,16.58
2022-12-17T05:17:16.299Z,19.75
2022-12-17T05:20:01.937Z,15.77
2022-12-17T05:22:47.675Z,18.10
2022-12-17T05:25:33.597Z,17.25
2022-12-17T05:28:19.968Z,13.60
2022-12-17T05:31:17.952Z,17.05
2022-12-17T05:34:03.549Z,20.70
2022-12-17T05:36:48.815Z,15.95
2022-12-17T05:39:34.496Z,13.82
2022-12-17T05:42:19.910Z,17.20
2022-12-17T05:45:05.360Z,15.25
2022-12-17T05:47:50.830Z,14.15
2022-12-17T05:50:36.721Z,13.25
2022-12-17T05:53:23.527Z,16.05
2022-12-17T05:56:11.607Z,15.35
2022-12-17T05:58:58.268Z,14.07
2022-12-17T06:01:44.144Z,15.73
2022-12-17T06:04:29.811Z,13.52
2022-12-17T06:07:15.211Z,14.85
2022-12-17T06:10:00.726Z,13.38
2022-12-17T06:12:46.465Z,13.60
2022-12-17T06:15:33.118Z,14.48
2022-12-17T06:18:18.883Z,12.57
2022-12-17T06:21:04.868Z,13.90
2022-12-17T06:23:50.266Z,17.02
2022-12-17T06:26:36.124Z,17.80
2022-12-17T06:29:21.378Z,15.60
2022-12-17T06:32:06.934Z,16.42
2022-12-17T06:34:52.602Z,17.17
2022-12-17T06:37:38.386Z,17.13
2022-12-17T06:40:24.514Z,15.77
2022-12-17T06:43:16.682Z,15.27
2022-12-17T06:46:02.129Z,12.38
2022-12-17T06:48:47.583Z,13.70
2022-12-17T06:51:33.270Z,16.80
2022-12-17T06:54:18.926Z,13.68
2022-12-17T06:57:04.412Z,12.15
2022-12-17T06:59:50.031Z,12.20
2022-12-17T07:02:35.762Z,11.55
2022-12-17T07:05:22.072Z,9.15
2022-12-17T07:08:25.685Z,9.43
2022-12-17T07:11:11.010Z,9.07
2022-12-17T07:13:56.758Z,12.57
2022-12-17T07:16:42.393Z,10.90
2022-12-17T07:19:28.042Z,10.93
2022-12-17T07:22:14.643Z,10.35
2022-12-17T07:25:00.024Z,11.82
2022-12-17T07:27:45.849Z,10.57
2022-12-17T07:30:31.860Z,9.30
2022-12-17T07:33:23.502Z,13.30
2022-12-17T07:36:10.945Z,14.73
2022-12-17T07:38:56.837Z,11.82
2022-12-17T07:41:42.546Z,10.38
2022-12-17T07:44:28.266Z,15.18
2022-12-17T07:47:13.744Z,11.10
2022-12-17T07:49:59.504Z,13.05
2022-12-17T07:52:52.913Z,14.85
2022-12-17T07:55:58.495Z,12.45
2022-12-17T07:58:44.280Z,10.20
2022-12-17T08:01:30.006Z,12.32
2022-12-17T08:04:16.083Z,12.02
2022-12-17T08:07:08.700Z,13.05
2022-12-17T08:09:55.933Z,12.95
2022-12-17T08:12:41.941Z,14.70
2022-12-17T08:15:27.968Z,14.07
2022-12-17T08:18:26.385Z,16.92
2022-12-17T08:21:13.138Z,14.35
2022-12-17T08:23:58.633Z,14.02
2022-12-17T08:26:47.898Z,13.45
2022-12-17T08:29:34.229Z,17.00
2022-12-17T08:32:19.622Z,17.05
2022-12-17T08:35:05.027Z,16.33
2022-12-17T08:37:50.896Z,17.20
2022-12-17T08:40:36.692Z,18.35
2022-12-17T08:43:22.371Z,15.98
2022-12-17T08:46:09.206Z,13.88
2022-12-17T08:48:55.914Z,20.38
2022-12-17T08:51:42.641Z,16.27
2022-12-17T08:54:28.795Z,17.40
2022-12-17T08:57:27.031Z,14.82
2022-12-17T09:00:16.406Z,16.25
2022-12-17T09:03:02.575Z,16.70
2022-12-17T09:05:48.206Z,15.25
2022-12-17T09:08:33.853Z,17.65
2022-12-17T09:11:20.311Z,13.77
2022-12-17T09:14:05.477Z,12.77
2022-12-17T09:17:10.955Z,14.30
2022-12-17T09:19:56.565Z,16.33
2022-12-17T09:22:42.201Z,15.13
2022-12-17T09:25:27.939Z,13.57
2022-12-17T09:28:13.413Z,16.02
2022-12-17T09:30:58.835Z,12.70
2022-12-17T09:33:44.723Z,16.23
2022-12-17T09:36:30.304Z,14.68
2022-12-17T09:39:15.853Z,14.43
2022-12-17T09:42:07.875Z,15.15
2022-12-17T09:45:06.663Z,16.27
2022-12-17T09:48:08.324Z,14.90
2022-12-17T09:50:54.233Z,14.85
2022-12-17T09:53:55.081Z,12.68
2022-12-17T09:56:42.872Z,15.57
2022-12-17T09:59:45.942Z,16.67
2022-12-17T10:02:41.542Z,14.55
2022-12-17T10:05:39.154Z,18.05
2022-12-17T10:08:25.558Z,14.00
2022-12-17T10:11:11.533Z,15.32
2022-12-17T10:13:57.523Z,18.50
2022-12-17T10:16:52.332Z,14.27
2022-12-17T10:19:52.722Z,18.90
2022-12-17T10:22:40.142Z,16.02
2022-12-17T10:25:40.412Z,13.98
2022-12-17T10:28:35.294Z,17.20
2022-12-17T10:31:26.446Z,14.88
2022-12-17T10:34:16.018Z,15.80
2022-12-17T10:37:09.819Z,13.15
2022-12-17T10:39:56.584Z,14.80
2022-12-17T10:42:57.225Z,14.38
2022-12-17T10:45:45.584Z,13.90
2022-12-17T10:48:41.455Z,18.52
2022-12-17T10:51:49.109Z,17.63
2022-12-17T10:54:50.020Z,16.08
2022-12-17T10:57:56.888Z,20.65
2022-12-17T11:00:49.781Z,15.73
2022-12-17T11:03:54.746Z,16.42
2022-12-17T11:06:50.744Z,16.00
2022-12-17T11:10:10.293Z,15.52
2022-12-17T11:13:00.054Z,17.85
2022-12-17T11:15:59.928Z,18.00
2022-12-17T11:18:54.335Z,14.88
2022-12-17T11:21:43.860Z,16.17
2022-12-17T11:24:39.822Z,16.52
2022-12-17T11:27:27.091Z,15.93
2022-12-17T11:30:12.880Z,16.13
2022-12-17T11:33:09.353Z,12.25
2022-12-17T11:36:17.852Z,16.92
2022-12-17T11:39:08.949Z,13.85
2022-12-17T11:42:23.246Z,15.10
2022-12-17T11:45:39.698Z,13.98
2022-12-17T11:48:34.303Z,13.50
2022-12-17T11:51:36.491Z,15.73
2022-12-17T11:54:40.440Z,14.43
2022-12-17T11:57:40.826Z,18.13
2022-12-17T12:00:35.336Z,17.17
2022-12-17T12:03:31.183Z,16.80
2022-12-17T12:06:19.329Z,15.75
2022-12-17T12:09:23.156Z,16.27
2022-12-17T12:12:34.290Z,12.93
2022-12-17T12:15:57.807Z,14.65
2022-12-17T12:18:43.457Z,16.88
2022-12-17T12:22:11.973Z,16.88
2022-12-17T12:25:39.933Z,15.88
2022-12-17T12:28:41.980Z,14.88
2022-12-17T12:31:50.808Z,15.35
2022-12-17T12:34:41.754Z,14.85
2022-12-17T12:37:32.601Z,16.67
2022-12-17T12:40:20.877Z,15.02
2022-12-17T12:43:24.618Z,15.75
2022-12-17T12:46:54.453Z,15.82
2022-12-17T12:49:54.247Z,18.30
2022-12-17T12:52:43.654Z,15.70
2022-12-17T12:55:29.767Z,18.65
2022-12-17T12:58:43.389Z,17.98
2022-12-17T13:01:29.344Z,13.52
2022-12-17T13:04:17.433Z,15.02
2022-12-17T13:06:50.820Z,15.02
2022-12-17T13:09:20.944Z,18.23
2022-12-17T13:12:08.640Z,17.15
2022-12-17T13:14:46.470Z,15.55
2022-12-17T13:17:37.895Z,15.27
2022-12-17T13:20:22.143Z,16.70
2022-12-17T13:23:04.050Z,16.10
2022-12-17T13:25:31.136Z,16.58
2022-12-17T13:27:58.301Z,15.70
2022-12-17T13:30:38.210Z,17.95
2022-12-17T13:33:29.698Z,16.77
2022-12-17T13:36:05.884Z,15.07
2022-12-17T13:39:21.426Z,16.48
2022-12-17T13:41:54.706Z,15.98
2022-12-17T13:44:40.318Z,16.95
2022-12-17T13:47:26.223Z,16.48
2022-12-17T13:50:32.059Z,18.33
2022-12-17T13:52:45.689Z,16.63
2022-12-17T13:55:22.538Z,17.98
2022-12-17T13:57:50.524Z,15.52
2022-12-17T14:00:27.250Z,14.88
2022-12-17T14:02:54.854Z,16.35
2022-12-17T14:05:37.305Z,18.42
2022-12-17T14:08:06.040Z,18.15
2022-12-17T14:10:33.882Z,21.20
2022-12-17T14:13:11.098Z,16.90
2022-12-17T14:15:38.380Z,15.45
2022-12-17T14:18:10.585Z,16.73
2022-12-17T14:20:37.819Z,18.13
2022-12-17T14:23:31.072Z,15.00
2022-12-17T14:25:58.662Z,16.30
2022-12-17T14:28:32.552Z,12.25
2022-12-17T14:31:26.558Z,19.60
2022-12-17T14:34:11.570Z,17.48
2022-12-17T14:36:44.144Z,16.88
2022-12-17T14:39:30.375Z,14.15
2022-12-17T14:42:18.529Z,15.57
2022-12-17T14:45:03.171Z,17.58
2022-12-17T14:47:35.508Z,19.15
2022-12-17T14:50:18.050Z,18.45
2022-12-17T14:52:50.761Z,14.60
2022-12-17T14:55:55.624Z,17.58
2022-12-17T14:58:25.193Z,13.63
2022-12-17T15:01:00.399Z,12.25
2022-12-17T15:03:30.392Z,16.23
2022-12-17T15:06:18.732Z,14.57
2022-12-17T15:08:48.193Z,18.13
2022-12-17T15:11:18.294Z,18.08
2022-12-17T15:13:49.219Z,16.77
2022-12-17T15:16:19.992Z,16.38
2022-12-17T15:18:47.129Z,13.32
2022-12-17T15:21:15.914Z,15.57
2022-12-17T15:23:44.760Z,17.23
2022-12-17T15:26:12.245Z,13.57
2022-12-17T15:28:39.438Z,15.10
2022-12-17T15:31:07.001Z,15.48
2022-12-17T15:33:33.985Z,16.92
2022-12-17T15:36:01.962Z,15.90
2022-12-17T15:38:28.853Z,15.32
2022-12-17T15:40:55.838Z,14.43
2022-12-17T15:43:24.221Z,15.18
2022-12-17T15:45:52.269Z,17.23
2022-12-17T15:48:21.564Z,15.88
2022-12-17T15:50:49.201Z,12.30
2022-12-17T15:53:16.591Z,14.45
2022-12-17T15:55:44.232Z,18.08
2022-12-17T15:58:11.623Z,15.43
2022-12-17T16:00:39.159Z,13.13
2022-12-17T16:03:06.130Z,13.60
2022-12-17T16:05:33.136Z,14.88
2022-12-17T16:08:02.533Z,14.65
2022-12-17T16:10:30.136Z,15.98
2022-12-17T16:12:57.753Z,14.75
2022-12-17T16:15:24.625Z,14.93
2022-12-17T16:17:51.664Z,13.02
2022-12-17T16:20:20.010Z,18.15
2022-12-17T16:22:46.943Z,17.98
2022-12-17T16:25:13.933Z,15.50
2022-12-17T16:27:41.059Z,14.07
2022-12-17T16:30:09.584Z,14.73
2022-12-17T16:32:36.997Z,16.17
2022-12-17T16:35:06.141Z,13.35
2022-12-17T16:37:33.049Z,11.60
2022-12-17T16:40:00.681Z,13.32
2022-12-17T16:42:28.115Z,15.05
2022-12-17T16:44:55.037Z,13.75
2022-12-17T16:47:21.957Z,12.90
2022-12-17T16:49:51.006Z,14.93
2022-12-17T16:52:18.227Z,16.35
2022-12-17T16:54:45.150Z,11.50
2022-12-17T16:57:12.154Z,15.15
2022-12-17T16:59:39.021Z,15.23
2022-12-17T17:02:09.804Z,18.15
2022-12-17T17:04:36.867Z,15.23
2022-12-17T17:07:03.899Z,15.15
2022-12-17T17:09:30.951Z,13.57
2022-12-17T17:12:01.525Z,14.73
2022-12-17T17:14:28.471Z,12.80
2022-12-17T17:16:55.375Z,13.70
2022-12-17T17:19:22.441Z,16.80
2022-12-17T17:21:52.585Z,13.75
2022-12-17T17:24:25.563Z,15.07
2022-12-17T17:26:53.973Z,13.10
2022-12-17T17:29:21.302Z,11.05
2022-12-17T17:34:36.354Z,13.40
2022-12-17T17:37:03.596Z,14.55
2022-12-17T17:39:33.178Z,14.25
2022-12-17T17:42:00.463Z,13.93
2022-12-17T17:44:27.332Z,15.32
2022-12-17T17:46:54.442Z,16.92
2022-12-17T17:49:22.345Z,17.45
2022-12-17T17:52:09.020Z,15.15
2022-12-17T17:54:36.523Z,12.15
2022-12-17T17:57:03.524Z,14.45
2022-12-17T17:59:33.772Z,13.85
2022-12-17T18:02:02.160Z,15.50
2022-12-17T18:04:29.736Z,16.85
2022-12-17T18:09:43.722Z,16.08
2022-12-17T18:12:29.427Z,16.92
2022-12-17T18:17:45.167Z,15.20
2022-12-17T18:20:12.489Z,16.55
2022-12-17T18:22:39.482Z,14.70
2022-12-17T18:25:07.884Z,12.70
2022-12-17T18:27:34.799Z,14.27
2022-12-17T18:30:01.718Z,18.77
2022-12-17T18:32:28.664Z,18.05
2022-12-17T18:34:55.691Z,16.38
2022-12-17T18:37:22.684Z,17.75
2022-12-17T18:39:49.607Z,17.90
2022-12-17T18:42:35.302Z,19.10
2022-12-17T18:45:02.882Z,21.30
2022-12-17T18:47:29.993Z,18.27
2022-12-17T18:49:57.464Z,19.83
2022-12-17T18:52:24.751Z,22.02
2022-12-17T18:54:51.857Z,23.17
2022-12-17T18:57:18.854Z,23.10
2022-12-17T18:59:45.850Z,17.20
2022-12-17T19:02:14.241Z,23.30
2022-12-17T19:04:42.053Z,20.92
2022-12-17T19:07:09.075Z,19.13
2022-12-17T19:09:36.572Z,18.70
2022-12-17T19:12:08.732Z,21.20
2022-12-17T19:14:36.871Z,16.85
2022-12-17T19:17:06.211Z,23.38
2022-12-17T19:19:33.644Z,21.30
2022-12-17T19:22:00.956Z,19.23
2022-12-17T19:24:28.226Z,22.80
2022-12-17T19:26:55.642Z,21.42
2022-12-17T19:29:23.059Z,17.67
2022-12-17T19:31:50.239Z,19.05
2022-12-17T19:34:18.879Z,18.90
2022-12-17T19:36:46.253Z,17.85
2022-12-17T19:39:19.685Z,18.90
2022-12-17T19:41:47.269Z,17.42
2022-12-17T19:44:17.470Z,19.33
2022-12-17T19:46:45.061Z,21.02
2022-12-17T19:49:16.420Z,15.82
2022-12-17T19:51:44.684Z,15.90
2022-12-17T19:54:15.367Z,15.18
2022-12-17T19:56:44.765Z,18.92
2022-12-17T19:59:12.713Z,20.25
2022-12-17T20:01:44.907Z,18.20
2022-12-17T20:04:14.194Z,18.20
2022-12-17T20:06:42.238Z,17.77
2022-12-17T20:09:09.237Z,18.42
2022-12-17T20:11:36.925Z,15.63
2022-12-17T20:14:12.329Z,17.48
2022-12-17T20:16:45.606Z,17.90
2022-12-17T20:19:18.407Z,22.23
2022-12-17T20:21:46.129Z,17.85
2022-12-17T20:24:13.540Z,14.23
2022-12-17T20:26:40.933Z,14.95
2022-12-17T20:29:08.941Z,17.90
2022-12-17T20:31:37.005Z,22.25
2022-12-17T20:34:06.505Z,18.52
2022-12-17T20:36:33.883Z,14.80
2022-12-17T20:39:01.537Z,12.65
2022-12-17T20:41:30.908Z,15.88
2022-12-17T20:44:02.704Z,19.17
2022-12-17T20:46:29.760Z,14.38
2022-12-17T20:48:59.511Z,17.45
2022-12-17T20:51:28.288Z,17.95
2022-12-17T20:53:57.062Z,14.30
2022-12-17T20:56:27.575Z,16.10
2022-12-17T20:59:00.911Z,18.77
2022-12-17T21:01:29.899Z,14.40
2022-12-17T21:03:58.138Z,18.13
2022-12-17T21:06:28.267Z,15.27
2022-12-17T21:08:55.572Z,16.45
2022-12-17T21:11:25.421Z,13.23
2022-12-17T21:13:52.996Z,17.85
2022-12-17T21:16:23.344Z,18.15
2022-12-17T21:18:55.618Z,13.65
2022-12-17T21:23:53.447Z,16.02
2022-12-17T21:26:21.870Z,16.33
2022-12-17T21:28:51.797Z,14.60
2022-12-17T21:31:30.158Z,18.40
2022-12-17T21:34:00.960Z,19.50
2022-12-17T21:36:31.390Z,15.52
2022-12-17T21:38:58.949Z,15.48
2022-12-17T21:41:29.259Z,15.13
2022-12-17T21:43:59.027Z,18.38
2022-12-17T21:46:27.502Z,18.63
2022-12-17T21:48:55.945Z,15.82
2022-12-17T21:51:24.302Z,13.65
2022-12-17T21:54:00.205Z,16.58
2022-12-17T21:56:28.657Z,16.13
2022-12-17T21:59:00.690Z,16.92
2022-12-17T22:01:32.157Z,19.15
2022-12-17T22:06:35.752Z,16.90
2022-12-17T22:09:24.942Z,11.98
2022-12-17T22:12:20.430Z,14.73
2022-12-17T22:14:47.674Z,14.68
2022-12-17T22:17:15.050Z,14.00
2022-12-17T22:19:43.082Z,15.43
2022-12-17T22:22:11.581Z,15.00
2022-12-17T22:24:38.613Z,11.77
2022-12-17T22:27:08.807Z,14.73
2022-12-17T22:29:55.129Z,13.25
2022-12-17T22:32:40.851Z,14.88
2022-12-17T22:36:57.600Z,14.10
2022-12-17T22:41:24.842Z,12.15
2022-12-17T22:44:33.645Z,14.75
2022-12-17T22:44:41.007Z,14.65
2022-12-17T22:46:19.792Z,14.73
2022-12-17T22:48:47.265Z,14.98
2022-12-17T22:51:24.027Z,17.42
2022-12-17T22:54:02.904Z,11.23
2022-12-17T22:56:54.347Z,14.57
2022-12-17T22:59:18.867Z,12.85
2022-12-17T23:01:45.954Z,12.80
2022-12-17T23:04:16.890Z,13.80
2022-12-17T23:06:45.785Z,16.33
2022-12-17T23:09:19.281Z,14.25
2022-12-17T23:11:48.302Z,13.13
2022-12-17T23:14:16.346Z,13.48
2022-12-17T23:16:43.576Z,16.08
2022-12-17T23:19:10.717Z,11.90
2022-12-17T23:21:38.275Z,13.85
2022-12-17T23:24:06.504Z,14.50
2022-12-17T23:26:35.861Z,14.05
2022-12-17T23:29:07.288Z,15.07
2022-12-17T23:31:37.394Z,13.82
2022-12-17T23:34:05.001Z,14.07
2022-12-17T23:36:32.669Z,15.90
2022-12-17T23:39:00.086Z,13.60
2022-12-17T23:41:29.579Z,12.82
2022-12-17T23:43:57.742Z,14.45
2022-12-17T23:46:27.278Z,15.63
2022-12-17T23:48:54.967Z,13.23
2022-12-17T23:51:23.692Z,16.33
2022-12-17T23:53:50.710Z,17.25
2022-12-17T23:56:20.389Z,16.25
2022-12-17T23:58:48.155Z,15.68
